Time;durP1;ratioP1;P1;durP2;ratioP2;P2;SDS_P1;SDS_P2;PMS_P1;PMS_P2;Temp;Humidity;BMP_temperature;BMP_pressure;BME280_temperature;BME280_humidity;BME280_pressure;Samples;Min_cycle;Max_cycle;Signal;HPM_P1;HPM_P2
2022/08/04 00:00:08;;;;;;;16.02;14.03;;;;;;;;;;1761000;81;21031;-69
2022/08/04 00:02:57;;;;;;;17.95;14.80;;;;;;;;;;1747857;81;21534;-71
2022/08/04 00:05:51;;;;;;;17.95;13.55;;;;;;;;;;1757588;81;21031;-69
2022/08/04 00:08:38;;;;;;;18.05;13.15;;;;;;;;;;1758282;81;20997;-69
2022/08/04 00:11:08;;;;;;;15.25;13.65;;;;;;;;;;1766780;81;21029;-70
2022/08/04 00:13:38;;;;;;;16.05;12.85;;;;;;;;;;1761837;81;21048;-69
2022/08/04 00:16:07;;;;;;;15.63;13.18;;;;;;;;;;1753509;81;21042;-69
2022/08/04 00:18:45;;;;;;;15.23;13.25;;;;;;;;;;1758898;81;21065;-69
2022/08/04 00:21:13;;;;;;;15.05;13.28;;;;;;;;;;1760803;80;21064;-69
2022/08/04 00:23:44;;;;;;;13.78;12.20;;;;;;;;;;1755294;81;21044;-69
2022/08/04 00:29:47;;;;;;;17.70;13.28;;;;;;;;;;1759976;81;21060;-69
2022/08/04 00:32:13;;;;;;;14.90;12.68;;;;;;;;;;1760112;81;21044;-69
2022/08/04 00:34:40;;;;;;;15.88;12.90;;;;;;;;;;1758161;81;21060;-68
2022/08/04 00:37:07;;;;;;;15.80;13.08;;;;;;;;;;1761556;80;21134;-68
2022/08/04 00:39:34;;;;;;;14.38;12.80;;;;;;;;;;1756465;81;21092;-69
2022/08/04 00:42:33;;;;;;;16.25;12.23;;;;;;;;;;1760893;81;21028;-69
2022/08/04 00:45:23;;;;;;;13.93;12.43;;;;;;;;;;1759164;81;21496;-69
2022/08/04 00:48:13;;;;;;;13.58;12.18;;;;;;;;;;1755927;81;21157;-69
2022/08/04 00:50:43;;;;;;;16.40;12.88;;;;;;;;;;1757873;80;21005;-69
2022/08/04 00:53:35;;;;;;;14.93;12.75;;;;;;;;;;1756531;81;21601;-68
2022/08/04 00:56:08;;;;;;;14.40;12.93;;;;;;;;;;1749020;81;21519;-70
2022/08/04 01:01:47;;;;;;;14.33;12.90;;;;;;;;;;1759234;81;21072;-68
2022/08/04 01:04:17;;;;;;;14.10;12.65;;;;;;;;;;1755076;81;20995;-70
2022/08/04 01:06:51;;;;;;;15.13;13.20;;;;;;;;;;1757927;81;21084;-68
2022/08/04 01:09:26;;;;;;;15.08;13.50;;;;;;;;;;1766670;81;21056;-68
2022/08/04 01:12:11;;;;;;;15.05;13.10;;;;;;;;;;1727515;81;20988;-69
2022/08/04 01:14:59;;;;;;;15.70;13.98;;;;;;;;;;1763425;81;21032;-69
2022/08/04 01:17:49;;;;;;;16.10;14.30;;;;;;;;;;1758603;80;21040;-69
2022/08/04 01:20:21;;;;;;;17.37;15.50;;;;;;;;;;1759428;81;21016;-69
2022/08/04 01:23:12;;;;;;;17.55;15.20;;;;;;;;;;1758797;81;21095;-69
2022/08/04 01:26:12;;;;;;;17.82;15.63;;;;;;;;;;1765431;81;21012;-71
2022/08/04 01:29:05;;;;;;;17.75;15.85;;;;;;;;;;1758502;81;21546;-71
2022/08/04 01:31:38;;;;;;;17.87;16.07;;;;;;;;;;1762258;81;21697;-69
2022/08/04 01:34:09;;;;;;;18.67;16.77;;;;;;;;;;1712064;81;21016;-70
2022/08/04 01:36:38;;;;;;;19.25;17.25;;;;;;;;;;1761434;81;21106;-69
2022/08/04 01:39:51;;;;;;;20.48;18.27;;;;;;;;;;1762115;81;21445;-70
2022/08/04 01:41:34;;;;;;;20.55;18.30;;;;;;;;;;1734002;81;21526;-69
2022/08/04 01:44:02;;;;;;;20.32;17.62;;;;;;;;;;1757262;81;21028;-70
2022/08/04 01:46:31;;;;;;;20.45;17.90;;;;;;;;;;1762817;81;21075;-69
2022/08/04 01:48:58;;;;;;;20.60;17.75;;;;;;;;;;1757752;81;21548;-67
2022/08/04 01:51:25;;;;;;;22.70;20.30;;;;;;;;;;1754451;80;21068;-70
2022/08/04 01:53:54;;;;;;;31.73;25.92;;;;;;;;;;1756754;81;21559;-70
2022/08/04 01:56:21;;;;;;;32.42;28.38;;;;;;;;;;1760154;81;21092;-69
2022/08/04 01:58:48;;;;;;;31.55;24.80;;;;;;;;;;1756968;81;21126;-70
2022/08/04 02:01:15;;;;;;;24.20;21.23;;;;;;;;;;1760470;81;21100;-73
2022/08/04 02:03:44;;;;;;;24.27;20.80;;;;;;;;;;1760801;81;21006;-70
2022/08/04 02:06:50;;;;;;;27.50;21.20;;;;;;;;;;1755621;81;21134;-70
2022/08/04 02:09:40;;;;;;;23.73;21.20;;;;;;;;;;1756526;81;21076;-70
2022/08/04 02:12:10;;;;;;;26.80;21.50;;;;;;;;;;1758509;81;21055;-70
2022/08/04 02:14:47;;;;;;;24.25;20.60;;;;;;;;;;1757648;80;21158;-70
2022/08/04 02:17:16;;;;;;;23.25;20.30;;;;;;;;;;1754914;81;21024;-70
2022/08/04 02:20:06;;;;;;;23.67;20.48;;;;;;;;;;1762368;81;21524;-70
2022/08/04 02:22:40;;;;;;;23.62;20.95;;;;;;;;;;1757372;81;21012;-70
2022/08/04 02:25:09;;;;;;;27.58;22.27;;;;;;;;;;1763311;81;21031;-70
2022/08/04 02:27:49;;;;;;;34.38;27.52;;;;;;;;;;1754968;81;21574;-70
2022/08/04 02:30:17;;;;;;;38.55;29.42;;;;;;;;;;1744796;81;21512;-70
2022/08/04 02:32:46;;;;;;;44.05;33.10;;;;;;;;;;1758406;81;21087;-69
2022/08/04 02:35:22;;;;;;;46.37;34.95;;;;;;;;;;1763624;80;21092;-70
2022/08/04 02:37:53;;;;;;;45.92;34.58;;;;;;;;;;1763563;81;21040;-69
2022/08/04 02:40:23;;;;;;;49.42;36.45;;;;;;;;;;1732043;81;21054;-70
2022/08/04 02:42:50;;;;;;;48.78;35.88;;;;;;;;;;1745549;81;21539;-69
2022/08/04 02:45:19;;;;;;;47.60;35.60;;;;;;;;;;1758302;81;21063;-70
2022/08/04 02:47:47;;;;;;;46.65;35.90;;;;;;;;;;1760097;80;21043;-69
2022/08/04 02:50:15;;;;;;;47.60;36.20;;;;;;;;;;1757943;81;21512;-70
2022/08/04 02:52:42;;;;;;;48.65;36.53;;;;;;;;;;1763341;80;21076;-69
2022/08/04 02:55:11;;;;;;;49.30;36.83;;;;;;;;;;1760243;81;21120;-69
2022/08/04 02:57:39;;;;;;;48.42;35.95;;;;;;;;;;1745943;81;21075;-70
2022/08/04 03:00:10;;;;;;;47.67;35.30;;;;;;;;;;1751362;81;21023;-69
2022/08/04 03:02:46;;;;;;;48.23;35.10;;;;;;;;;;1756205;80;21540;-69
2022/08/04 03:05:18;;;;;;;44.42;34.83;;;;;;;;;;1750626;81;21190;-70
2022/08/04 03:07:51;;;;;;;43.78;32.88;;;;;;;;;;1723632;81;21020;-69
2022/08/04 03:10:25;;;;;;;40.55;32.28;;;;;;;;;;1757827;81;21000;-69
2022/08/04 03:13:25;;;;;;;40.25;31.80;;;;;;;;;;1751991;81;21023;-69
2022/08/04 03:16:04;;;;;;;41.42;32.08;;;;;;;;;;1760884;81;21036;-69
2022/08/04 03:18:46;;;;;;;40.60;31.87;;;;;;;;;;1752536;81;21070;-68
2022/08/04 03:21:26;;;;;;;38.73;30.80;;;;;;;;;;1758313;80;21013;-68
2022/08/04 03:24:00;;;;;;;37.13;30.82;;;;;;;;;;1764457;81;21048;-69
2022/08/04 03:26:48;;;;;;;41.73;33.10;;;;;;;;;;1764776;81;21104;-69
2022/08/04 03:29:38;;;;;;;42.62;32.25;;;;;;;;;;1765162;81;21016;-71
2022/08/04 03:32:38;;;;;;;41.02;31.48;;;;;;;;;;1759865;81;21102;-68
2022/08/04 03:35:41;;;;;;;45.40;31.37;;;;;;;;;;1749531;81;21365;-68
2022/08/04 03:38:24;;;;;;;41.75;31.90;;;;;;;;;;1757203;81;21104;-70
2022/08/04 03:41:00;;;;;;;39.20;31.50;;;;;;;;;;1760463;80;21489;-69
2022/08/04 03:43:51;;;;;;;39.95;31.17;;;;;;;;;;1730775;81;21067;-70
2022/08/04 03:46:41;;;;;;;40.95;32.63;;;;;;;;;;1761137;81;21080;-68
2022/08/04 03:49:37;;;;;;;41.40;32.95;;;;;;;;;;1749328;80;21050;-69
2022/08/04 03:55:16;;;;;;;43.85;33.28;;;;;;;;;;1754944;80;21088;-69
2022/08/04 03:58:02;;;;;;;37.15;30.17;;;;;;;;;;1758218;81;21084;-69
2022/08/04 04:00:58;;;;;;;38.23;31.50;;;;;;;;;;1763155;81;21040;-70
2022/08/04 04:03:32;;;;;;;33.50;26.48;;;;;;;;;;1750142;81;21051;-69
2022/08/04 04:06:35;;;;;;;30.97;22.15;;;;;;;;;;1753455;81;21074;-69
2022/08/04 04:09:33;;;;;;;25.25;20.25;;;;;;;;;;1760908;81;21047;-69
2022/08/04 04:12:26;;;;;;;21.90;19.30;;;;;;;;;;1785398;80;21040;-69
2022/08/04 04:15:23;;;;;;;24.25;18.52;;;;;;;;;;1760724;80;21039;-69
2022/08/04 04:18:06;;;;;;;21.85;19.55;;;;;;;;;;1782526;80;21050;-69
2022/08/04 04:35:24;;;;;;;34.60;27.27;;;;;;;;;;1746172;80;21235;-71
2022/08/04 04:37:52;;;;;;;31.27;26.85;;;;;;;;;;1736659;82;21072;-70
2022/08/04 04:40:26;;;;;;;29.55;26.02;;;;;;;;;;1734597;80;21095;-69
2022/08/04 04:43:11;;;;;;;29.95;26.68;;;;;;;;;;1701071;83;21056;-69
2022/08/04 04:45:51;;;;;;;29.52;26.33;;;;;;;;;;1694136;83;20999;-70
2022/08/04 04:48:36;;;;;;;30.08;25.80;;;;;;;;;;1699760;83;21041;-70
2022/08/04 04:51:08;;;;;;;28.40;25.43;;;;;;;;;;1697634;83;21109;-69
2022/08/04 04:53:36;;;;;;;29.52;25.95;;;;;;;;;;1771853;80;21066;-69
2022/08/04 04:56:04;;;;;;;28.87;25.77;;;;;;;;;;1751605;80;21063;-70
2022/08/04 04:58:32;;;;;;;28.85;25.35;;;;;;;;;;1755912;80;21126;-70
2022/08/04 05:01:06;;;;;;;27.13;24.25;;;;;;;;;;1742434;81;21103;-69
2022/08/04 05:03:34;;;;;;;28.02;25.02;;;;;;;;;;1746829;82;21055;-70
2022/08/04 05:06:15;;;;;;;28.75;25.65;;;;;;;;;;1720283;82;20992;-70
2022/08/04 05:08:43;;;;;;;30.52;27.32;;;;;;;;;;1746269;82;21030;-69
2022/08/04 05:11:14;;;;;;;29.40;26.25;;;;;;;;;;1749771;79;21523;-70
2022/08/04 05:13:45;;;;;;;30.80;26.48;;;;;;;;;;1755824;80;21020;-69
2022/08/04 05:16:20;;;;;;;31.48;27.55;;;;;;;;;;1765314;80;21067;-70
2022/08/04 05:18:54;;;;;;;34.80;27.75;;;;;;;;;;1752755;79;21127;-69
2022/08/04 05:21:25;;;;;;;30.10;26.90;;;;;;;;;;1708669;82;21633;-70
2022/08/04 05:23:54;;;;;;;29.75;25.77;;;;;;;;;;1686947;80;21130;-71
2022/08/04 05:26:22;;;;;;;29.90;26.27;;;;;;;;;;1725848;80;21039;-70
2022/08/04 05:28:50;;;;;;;29.45;26.15;;;;;;;;;;1726117;80;21036;-70
2022/08/04 05:31:18;;;;;;;26.40;23.07;;;;;;;;;;1724639;81;21049;-69
2022/08/04 05:33:49;;;;;;;25.85;23.02;;;;;;;;;;1733689;80;21043;-69
2022/08/04 05:36:18;;;;;;;25.40;22.60;;;;;;;;;;1713206;82;21087;-70
2022/08/04 05:38:45;;;;;;;26.05;23.30;;;;;;;;;;1738052;82;21040;-70
2022/08/04 05:41:12;;;;;;;27.02;23.40;;;;;;;;;;1719757;81;21039;-70
2022/08/04 05:43:42;;;;;;;25.35;22.75;;;;;;;;;;1733595;81;21154;-70
2022/08/04 05:46:10;;;;;;;25.45;22.82;;;;;;;;;;1715824;82;21078;-70
2022/08/04 05:48:37;;;;;;;24.90;22.13;;;;;;;;;;1748729;81;21036;-70
2022/08/04 05:51:06;;;;;;;23.70;21.30;;;;;;;;;;1728547;81;21034;-70
2022/08/04 05:53:33;;;;;;;23.42;20.92;;;;;;;;;;1728388;80;22488;-70
2022/08/04 05:56:01;;;;;;;25.23;21.42;;;;;;;;;;1713398;83;21042;-69
2022/08/04 05:58:29;;;;;;;21.90;19.60;;;;;;;;;;1740023;81;21491;-70
2022/08/04 06:00:57;;;;;;;22.27;20.00;;;;;;;;;;1740360;81;21025;-70
2022/08/04 06:03:25;;;;;;;20.88;18.80;;;;;;;;;;1742060;80;20953;-71
2022/08/04 06:05:51;;;;;;;21.17;19.10;;;;;;;;;;1713893;82;21054;-71
2022/08/04 06:08:18;;;;;;;21.73;19.50;;;;;;;;;;1739888;81;21038;-70
2022/08/04 06:10:46;;;;;;;19.98;17.87;;;;;;;;;;1734923;81;21068;-69
2022/08/04 06:13:14;;;;;;;19.48;17.42;;;;;;;;;;1740229;81;21799;-73
2022/08/04 06:15:42;;;;;;;18.12;16.12;;;;;;;;;;1745584;81;21098;-69
2022/08/04 06:18:10;;;;;;;19.12;17.10;;;;;;;;;;1695491;83;21086;-70
2022/08/04 06:20:37;;;;;;;20.00;16.62;;;;;;;;;;1693049;83;21011;-70
2022/08/04 06:23:06;;;;;;;18.40;16.20;;;;;;;;;;1695427;83;21079;-70
2022/08/04 06:25:34;;;;;;;18.65;16.75;;;;;;;;;;1732644;82;21512;-70
2022/08/04 06:28:02;;;;;;;18.52;16.62;;;;;;;;;;1726458;82;21004;-70
2022/08/04 06:30:29;;;;;;;19.65;16.90;;;;;;;;;;1731291;82;21007;-69
2022/08/04 06:32:56;;;;;;;18.02;16.17;;;;;;;;;;1735789;81;20976;-70
2022/08/04 06:35:24;;;;;;;18.10;15.85;;;;;;;;;;1740631;81;21562;-71
2022/08/04 06:37:52;;;;;;;18.05;16.15;;;;;;;;;;1725488;82;21031;-70
2022/08/04 06:40:20;;;;;;;17.32;15.35;;;;;;;;;;1744425;81;20980;-70
2022/08/04 06:42:48;;;;;;;16.02;14.47;;;;;;;;;;1743627;81;21057;-69
2022/08/04 06:45:15;;;;;;;16.20;14.13;;;;;;;;;;1736293;81;21486;-69
2022/08/04 06:47:42;;;;;;;16.50;14.80;;;;;;;;;;1713586;82;21039;-70
2022/08/04 06:50:10;;;;;;;14.45;13.05;;;;;;;;;;1699892;83;21082;-70
2022/08/04 06:52:36;;;;;;;14.23;12.93;;;;;;;;;;1721571;81;21121;-70
2022/08/04 06:55:04;;;;;;;16.65;15.05;;;;;;;;;;1741952;81;21041;-69
2022/08/04 06:57:32;;;;;;;15.53;13.93;;;;;;;;;;1739910;81;21082;-70
2022/08/04 07:00:00;;;;;;;14.93;13.62;;;;;;;;;;1736267;81;21057;-70
2022/08/04 07:02:28;;;;;;;15.60;14.05;;;;;;;;;;1730447;82;21064;-78
2022/08/04 07:04:55;;;;;;;14.63;13.22;;;;;;;;;;1741645;81;21064;-69
2022/08/04 07:07:23;;;;;;;14.50;13.13;;;;;;;;;;1722494;81;21072;-69
2022/08/04 07:09:50;;;;;;;15.53;13.88;;;;;;;;;;1741353;81;21042;-69
2022/08/04 07:12:20;;;;;;;14.95;13.40;;;;;;;;;;1742688;82;21490;-70
2022/08/04 07:14:48;;;;;;;13.40;12.10;;;;;;;;;;1737253;82;21019;-69
2022/08/04 07:17:16;;;;;;;14.23;12.68;;;;;;;;;;1746014;81;21038;-70
2022/08/04 07:19:43;;;;;;;13.90;12.50;;;;;;;;;;1741769;80;21102;-67
2022/08/04 07:22:10;;;;;;;13.75;12.45;;;;;;;;;;1732245;82;21012;-67
2022/08/04 07:24:40;;;;;;;13.70;12.30;;;;;;;;;;1728407;82;21530;-67
2022/08/04 07:27:07;;;;;;;13.70;12.40;;;;;;;;;;1741131;80;21067;-67
2022/08/04 07:29:35;;;;;;;14.03;12.63;;;;;;;;;;1722780;82;21098;-67
2022/08/04 07:32:02;;;;;;;13.28;11.97;;;;;;;;;;1730997;81;21535;-68
2022/08/04 07:34:29;;;;;;;12.90;11.30;;;;;;;;;;1735223;82;21031;-72
2022/08/04 07:36:57;;;;;;;12.15;11.08;;;;;;;;;;1748317;82;21076;-70
2022/08/04 07:39:24;;;;;;;13.03;11.75;;;;;;;;;;1731745;82;21009;-71
2022/08/04 07:41:52;;;;;;;12.95;11.65;;;;;;;;;;1728725;82;21044;-69
2022/08/04 07:44:18;;;;;;;12.75;11.55;;;;;;;;;;1710127;82;21095;-69
2022/08/04 07:46:45;;;;;;;12.90;11.40;;;;;;;;;;1738136;81;21142;-69
2022/08/04 07:49:12;;;;;;;12.88;11.60;;;;;;;;;;1719463;82;21091;-69
2022/08/04 07:51:39;;;;;;;12.20;11.00;;;;;;;;;;1734307;81;21004;-70
2022/08/04 07:54:08;;;;;;;12.60;11.50;;;;;;;;;;1748535;82;21024;-69
2022/08/04 07:56:35;;;;;;;12.50;11.25;;;;;;;;;;1744117;81;21126;-70
2022/08/04 07:59:01;;;;;;;12.68;11.48;;;;;;;;;;1743571;81;21058;-69
2022/08/04 08:01:28;;;;;;;13.43;12.15;;;;;;;;;;1749669;81;21043;-69
2022/08/04 08:03:55;;;;;;;13.65;12.35;;;;;;;;;;1743709;81;21506;-70
2022/08/04 08:06:22;;;;;;;22.77;20.10;;;;;;;;;;1743660;81;21035;-68
2022/08/04 08:08:49;;;;;;;33.25;27.50;;;;;;;;;;1746489;81;21084;-69
2022/08/04 08:11:15;;;;;;;32.38;22.67;;;;;;;;;;1750198;82;21569;-68
2022/08/04 08:13:44;;;;;;;35.43;26.45;;;;;;;;;;1744655;82;21090;-69
2022/08/04 08:16:11;;;;;;;25.23;20.40;;;;;;;;;;1743476;82;21075;-70
2022/08/04 08:18:37;;;;;;;24.00;18.02;;;;;;;;;;1747977;81;21066;-68
2022/08/04 08:21:04;;;;;;;18.40;16.02;;;;;;;;;;1748274;81;21101;-68
2022/08/04 08:23:33;;;;;;;18.30;14.90;;;;;;;;;;1745824;81;21086;-71
2022/08/04 08:25:59;;;;;;;19.32;15.23;;;;;;;;;;1745479;81;21101;-71
2022/08/04 08:28:26;;;;;;;18.10;15.18;;;;;;;;;;1744100;81;21110;-71
2022/08/04 08:30:53;;;;;;;12.73;11.53;;;;;;;;;;1746772;81;21082;-72
2022/08/04 08:33:21;;;;;;;15.80;14.07;;;;;;;;;;1749552;82;21595;-72
2022/08/04 08:35:53;;;;;;;15.95;14.13;;;;;;;;;;1745503;82;21133;-71
2022/08/04 08:38:21;;;;;;;19.45;14.35;;;;;;;;;;1745079;82;21044;-70
2022/08/04 08:40:49;;;;;;;18.42;15.48;;;;;;;;;;1745167;81;21138;-70
2022/08/04 08:43:21;;;;;;;22.37;16.67;;;;;;;;;;1745167;81;21071;-70
2022/08/04 08:45:52;;;;;;;21.57;19.27;;;;;;;;;;1746089;81;21026;-69
2022/08/04 08:48:32;;;;;;;19.32;17.32;;;;;;;;;;1746291;82;21523;-71
2022/08/04 08:51:15;;;;;;;13.08;11.70;;;;;;;;;;1742424;81;21131;-75
2022/08/04 08:53:44;;;;;;;31.60;11.22;;;;;;;;;;1749203;81;21557;-71
2022/08/04 08:56:15;;;;;;;16.23;10.20;;;;;;;;;;1749229;81;21062;-71
2022/08/04 08:58:55;;;;;;;14.03;12.53;;;;;;;;;;1743865;82;21338;-70
2022/08/04 09:01:23;;;;;;;16.95;12.95;;;;;;;;;;1701270;82;21125;-70
2022/08/04 09:03:52;;;;;;;19.62;14.35;;;;;;;;;;1742604;81;21079;-70
2022/08/04 09:06:23;;;;;;;17.20;14.15;;;;;;;;;;1747005;82;21008;-72
2022/08/04 09:08:51;;;;;;;15.83;13.80;;;;;;;;;;1746475;82;21086;-70
2022/08/04 09:11:22;;;;;;;15.23;13.62;;;;;;;;;;1730887;82;21011;-70
2022/08/04 09:13:56;;;;;;;17.27;15.48;;;;;;;;;;1718544;81;21057;-70
2022/08/04 09:16:25;;;;;;;19.55;17.45;;;;;;;;;;1732100;82;21173;-70
2022/08/04 09:18:56;;;;;;;21.68;19.37;;;;;;;;;;1737891;81;21068;-70
2022/08/04 09:21:43;;;;;;;23.57;21.07;;;;;;;;;;1729022;82;21107;-70
2022/08/04 09:24:14;;;;;;;23.73;21.10;;;;;;;;;;1734117;82;21071;-69
2022/08/04 09:26:45;;;;;;;23.47;20.97;;;;;;;;;;1729936;82;21036;-69
2022/08/04 09:29:13;;;;;;;26.95;21.37;;;;;;;;;;1738888;82;21050;-69
2022/08/04 09:31:45;;;;;;;24.72;21.82;;;;;;;;;;1732402;82;21530;-69
2022/08/04 09:34:16;;;;;;;24.60;21.93;;;;;;;;;;1715201;81;21039;-69
2022/08/04 09:36:47;;;;;;;29.18;25.97;;;;;;;;;;1671830;82;21052;-70
2022/08/04 09:39:25;;;;;;;32.63;28.15;;;;;;;;;;1682486;83;20981;-71
2022/08/04 09:41:59;;;;;;;30.95;27.05;;;;;;;;;;1689329;82;20969;-70
2022/08/04 09:44:31;;;;;;;34.45;27.98;;;;;;;;;;1686791;83;21067;-70
2022/08/04 09:47:11;;;;;;;31.02;25.70;;;;;;;;;;1669177;85;21018;-70
2022/08/04 09:49:42;;;;;;;33.78;27.58;;;;;;;;;;1673124;83;21029;-70
2022/08/04 09:52:10;;;;;;;36.03;27.10;;;;;;;;;;1679943;84;21036;-71
2022/08/04 09:54:39;;;;;;;34.18;27.15;;;;;;;;;;1679663;83;21016;-70
2022/08/04 09:57:25;;;;;;;39.18;33.75;;;;;;;;;;1674485;84;21038;-70
2022/08/04 09:59:59;;;;;;;40.20;33.70;;;;;;;;;;1673420;84;21511;-70
2022/08/04 10:02:28;;;;;;;32.10;28.60;;;;;;;;;;1729733;81;21009;-69
2022/08/04 10:04:55;;;;;;;26.12;21.52;;;;;;;;;;1738332;82;21049;-70
2022/08/04 10:07:27;;;;;;;25.48;22.77;;;;;;;;;;1727301;82;21004;-71
2022/08/04 10:10:04;;;;;;;26.00;23.20;;;;;;;;;;1727784;82;21122;-71
2022/08/04 10:12:50;;;;;;;25.72;22.95;;;;;;;;;;1739021;81;21031;-68
2022/08/04 10:15:22;;;;;;;25.60;22.90;;;;;;;;;;1718362;82;21038;-70
2022/08/04 10:18:07;;;;;;;24.52;21.77;;;;;;;;;;1706903;82;21523;-71
2022/08/04 10:20:47;;;;;;;26.65;23.77;;;;;;;;;;1705912;82;21103;-71
2022/08/04 10:23:15;;;;;;;26.65;23.87;;;;;;;;;;1738494;81;21225;-71
2022/08/04 10:25:44;;;;;;;28.42;25.37;;;;;;;;;;1730707;82;20976;-71
2022/08/04 10:28:12;;;;;;;21.68;19.37;;;;;;;;;;1717129;82;21066;-71
2022/08/04 10:30:39;;;;;;;22.27;19.98;;;;;;;;;;1731266;81;21075;-71
2022/08/04 10:33:13;;;;;;;21.37;19.27;;;;;;;;;;1732698;82;21019;-70
2022/08/04 10:35:42;;;;;;;19.80;17.70;;;;;;;;;;1733163;82;21070;-71
2022/08/04 10:38:12;;;;;;;18.05;16.30;;;;;;;;;;1692837;83;21029;-72
2022/08/04 10:40:44;;;;;;;19.42;17.25;;;;;;;;;;1715161;82;21169;-71
2022/08/04 10:43:16;;;;;;;18.77;16.77;;;;;;;;;;1742545;80;21012;-72
2022/08/04 10:45:47;;;;;;;17.80;16.10;;;;;;;;;;1742525;82;21503;-72
2022/08/04 10:48:22;;;;;;;18.42;16.07;;;;;;;;;;1736814;81;21007;-71
2022/08/04 10:50:51;;;;;;;17.30;15.48;;;;;;;;;;1733373;81;21114;-70
2022/08/04 10:53:19;;;;;;;17.85;15.38;;;;;;;;;;1727787;82;21084;-71
2022/08/04 10:55:47;;;;;;;18.67;16.87;;;;;;;;;;1732093;81;21052;-72
2022/08/04 10:58:16;;;;;;;18.17;16.40;;;;;;;;;;1741508;82;21546;-72
2022/08/04 11:00:43;;;;;;;17.82;15.90;;;;;;;;;;1732666;81;21047;-72
2022/08/04 11:03:14;;;;;;;18.57;16.60;;;;;;;;;;1734601;81;21033;-72
2022/08/04 11:05:49;;;;;;;18.10;16.40;;;;;;;;;;1743231;82;21004;-71
2022/08/04 11:08:26;;;;;;;16.77;15.03;;;;;;;;;;1730816;81;21032;-72
2022/08/04 11:11:03;;;;;;;16.05;14.50;;;;;;;;;;1716427;81;21480;-71
2022/08/04 11:13:34;;;;;;;15.90;14.30;;;;;;;;;;1701914;82;21029;-71
2022/08/04 11:16:02;;;;;;;15.30;13.90;;;;;;;;;;1725762;81;21063;-71
2022/08/04 11:18:36;;;;;;;16.87;14.33;;;;;;;;;;1739854;80;21483;-72
2022/08/04 11:21:11;;;;;;;16.37;14.55;;;;;;;;;;1721281;82;21043;-72
2022/08/04 11:23:39;;;;;;;16.25;14.75;;;;;;;;;;1712644;82;21102;-72
2022/08/04 11:26:12;;;;;;;16.65;14.73;;;;;;;;;;1738279;80;21023;-72
2022/08/04 11:28:46;;;;;;;17.10;15.38;;;;;;;;;;1733142;82;21008;-72
2022/08/04 11:31:14;;;;;;;15.90;14.40;;;;;;;;;;1736664;82;21009;-72
2022/08/04 11:33:49;;;;;;;16.50;14.80;;;;;;;;;;1691409;82;21034;-71
2022/08/04 11:36:34;;;;;;;16.45;14.85;;;;;;;;;;1688112;82;21032;-73
2022/08/04 11:39:15;;;;;;;16.75;15.13;;;;;;;;;;1684642;83;21345;-72
2022/08/04 11:41:53;;;;;;;16.82;15.08;;;;;;;;;;1681578;84;21040;-72
2022/08/04 11:44:27;;;;;;;17.67;15.80;;;;;;;;;;1680689;84;21056;-72
2022/08/04 11:46:55;;;;;;;16.65;14.90;;;;;;;;;;1678696;84;21516;-72
2022/08/04 11:49:37;;;;;;;18.37;14.95;;;;;;;;;;1680873;84;21153;-72
2022/08/04 11:52:04;;;;;;;15.38;13.98;;;;;;;;;;1745953;81;21058;-72
2022/08/04 11:54:33;;;;;;;15.98;14.38;;;;;;;;;;1745922;81;21035;-72
2022/08/04 11:56:59;;;;;;;16.30;14.80;;;;;;;;;;1741611;82;20980;-72
2022/08/04 11:59:26;;;;;;;16.70;15.08;;;;;;;;;;1745909;81;21566;-72
2022/08/04 12:02:13;;;;;;;16.60;14.25;;;;;;;;;;1746115;81;21046;-72
2022/08/04 12:04:48;;;;;;;14.53;13.10;;;;;;;;;;1744704;81;21009;-71
2022/08/04 12:07:33;;;;;;;15.83;14.33;;;;;;;;;;1744230;82;21102;-72
2022/08/04 12:10:10;;;;;;;15.18;13.58;;;;;;;;;;1745814;82;21039;-70
2022/08/04 12:12:38;;;;;;;15.38;13.72;;;;;;;;;;1744460;82;21047;-71
2022/08/04 12:15:12;;;;;;;16.35;14.75;;;;;;;;;;1746034;82;21047;-72
2022/08/04 12:17:57;;;;;;;15.65;14.25;;;;;;;;;;1745539;81;21035;-72
2022/08/04 12:20:24;;;;;;;15.70;14.13;;;;;;;;;;1745414;81;21063;-72
2022/08/04 12:22:52;;;;;;;15.53;14.03;;;;;;;;;;1744592;81;21114;-71
2022/08/04 12:25:28;;;;;;;15.83;14.28;;;;;;;;;;1743963;82;21024;-71
2022/08/04 12:27:57;;;;;;;15.88;14.23;;;;;;;;;;1717024;81;21031;-71
2022/08/04 12:30:23;;;;;;;17.00;14.95;;;;;;;;;;1746091;81;21023;-71
2022/08/04 12:32:52;;;;;;;15.03;13.62;;;;;;;;;;1743741;82;21526;-72
2022/08/04 12:35:20;;;;;;;14.95;13.48;;;;;;;;;;1745876;81;21570;-71
2022/08/04 12:37:51;;;;;;;15.80;14.30;;;;;;;;;;1745130;82;21511;-72
2022/08/04 12:40:20;;;;;;;16.97;13.95;;;;;;;;;;1744837;82;21051;-72
2022/08/04 12:42:57;;;;;;;15.23;13.72;;;;;;;;;;1744051;82;21051;-72
2022/08/04 12:45:23;;;;;;;14.47;12.93;;;;;;;;;;1744941;82;21562;-71
2022/08/04 12:47:51;;;;;;;14.73;13.32;;;;;;;;;;1745597;81;21173;-71
2022/08/04 12:50:19;;;;;;;14.10;12.80;;;;;;;;;;1746276;82;21035;-71
2022/08/04 12:52:47;;;;;;;14.60;13.20;;;;;;;;;;1746164;81;21043;-72
2022/08/04 12:55:14;;;;;;;15.10;13.43;;;;;;;;;;1746350;80;21019;-72
2022/08/04 12:57:41;;;;;;;13.62;12.40;;;;;;;;;;1746133;81;21479;-72
2022/08/04 13:00:09;;;;;;;13.43;12.23;;;;;;;;;;1745452;81;21030;-71
2022/08/04 13:02:40;;;;;;;14.20;12.80;;;;;;;;;;1737228;81;21514;-72
2022/08/04 13:05:08;;;;;;;14.68;13.18;;;;;;;;;;1741561;81;21004;-71
2022/08/04 13:07:36;;;;;;;13.70;12.30;;;;;;;;;;1724619;82;20985;-71
2022/08/04 13:10:07;;;;;;;14.35;12.95;;;;;;;;;;1735565;82;20985;-72
2022/08/04 13:12:34;;;;;;;13.53;12.33;;;;;;;;;;1737373;82;21027;-71
2022/08/04 13:15:03;;;;;;;14.33;12.43;;;;;;;;;;1737449;82;22113;-72
2022/08/04 13:17:31;;;;;;;13.38;12.00;;;;;;;;;;1721786;82;21129;-72
2022/08/04 13:19:58;;;;;;;14.03;12.47;;;;;;;;;;1732387;82;21516;-71
2022/08/04 13:22:27;;;;;;;13.68;12.37;;;;;;;;;;1733284;81;21083;-72
2022/08/04 13:24:56;;;;;;;12.75;11.55;;;;;;;;;;1729845;82;20995;-71
2022/08/04 13:27:22;;;;;;;14.05;12.45;;;;;;;;;;1732272;82;21059;-71
2022/08/04 13:29:51;;;;;;;13.55;12.25;;;;;;;;;;1744492;81;21051;-71
2022/08/04 13:32:19;;;;;;;13.10;11.85;;;;;;;;;;1750935;82;21065;-71
2022/08/04 13:34:46;;;;;;;13.48;12.28;;;;;;;;;;1741914;81;21019;-72
2022/08/04 13:37:13;;;;;;;13.48;12.07;;;;;;;;;;1743698;82;20984;-72
2022/08/04 13:39:44;;;;;;;13.78;12.47;;;;;;;;;;1736780;81;21032;-72
2022/08/04 13:42:11;;;;;;;13.45;12.15;;;;;;;;;;1744171;81;21054;-72
2022/08/04 13:44:40;;;;;;;14.35;12.80;;;;;;;;;;1745777;81;21086;-72
2022/08/04 13:47:08;;;;;;;14.33;12.80;;;;;;;;;;1746036;81;21023;-72
2022/08/04 13:49:35;;;;;;;13.83;12.53;;;;;;;;;;1746499;81;21510;-71
2022/08/04 13:52:03;;;;;;;14.35;12.88;;;;;;;;;;1745226;81;21130;-72
2022/08/04 13:54:41;;;;;;;14.10;12.80;;;;;;;;;;1746668;82;21062;-72
2022/08/04 13:57:12;;;;;;;14.70;13.30;;;;;;;;;;1742066;81;21058;-72
2022/08/04 13:59:41;;;;;;;14.38;12.95;;;;;;;;;;1745630;82;21024;-72
2022/08/04 14:02:09;;;;;;;14.45;13.03;;;;;;;;;;1743088;81;21538;-72
2022/08/04 14:04:41;;;;;;;14.73;12.63;;;;;;;;;;1743959;82;21530;-72
2022/08/04 14:07:12;;;;;;;17.07;14.25;;;;;;;;;;1744761;81;21051;-72
2022/08/04 14:09:39;;;;;;;15.45;13.88;;;;;;;;;;1718000;82;21054;-70
2022/08/04 14:12:10;;;;;;;15.20;13.65;;;;;;;;;;1715191;80;21063;-71
2022/08/04 14:14:38;;;;;;;16.12;13.88;;;;;;;;;;1746316;82;21051;-71
2022/08/04 14:17:08;;;;;;;14.80;12.82;;;;;;;;;;1716348;83;21015;-71
2022/08/04 14:19:48;;;;;;;14.60;13.10;;;;;;;;;;1745582;80;21032;-72
2022/08/04 14:22:29;;;;;;;15.10;13.60;;;;;;;;;;1732594;80;21590;-71
2022/08/04 14:25:08;;;;;;;14.95;13.30;;;;;;;;;;1712150;83;21557;-71
2022/08/04 14:27:45;;;;;;;15.20;13.62;;;;;;;;;;1711770;82;21047;-71
2022/08/04 14:30:32;;;;;;;15.43;13.83;;;;;;;;;;1714671;81;21052;-71
2022/08/04 14:33:00;;;;;;;14.47;13.18;;;;;;;;;;1723550;80;21031;-71
2022/08/04 14:35:27;;;;;;;15.40;13.75;;;;;;;;;;1737682;82;21043;-70
2022/08/04 14:38:01;;;;;;;15.80;14.20;;;;;;;;;;1716663;82;21035;-70
2022/08/04 14:40:30;;;;;;;16.42;14.73;;;;;;;;;;1711465;83;21039;-69
2022/08/04 14:42:57;;;;;;;15.75;14.18;;;;;;;;;;1713354;81;21015;-71
2022/08/04 14:45:44;;;;;;;17.30;15.45;;;;;;;;;;1738149;80;21017;-71
2022/08/04 14:48:13;;;;;;;18.17;15.90;;;;;;;;;;1720975;81;21515;-70
2022/08/04 14:50:43;;;;;;;16.55;14.85;;;;;;;;;;1717571;81;21023;-70
2022/08/04 14:53:13;;;;;;;15.60;14.13;;;;;;;;;;1718271;81;21159;-71
2022/08/04 14:55:41;;;;;;;12.63;11.38;;;;;;;;;;1719871;82;21035;-70
2022/08/04 14:58:10;;;;;;;13.08;11.73;;;;;;;;;;1713920;82;21046;-70
2022/08/04 15:00:36;;;;;;;14.45;11.65;;;;;;;;;;1713019;82;21071;-71
2022/08/04 15:03:07;;;;;;;12.47;11.25;;;;;;;;;;1713782;83;21090;-71
2022/08/04 15:05:34;;;;;;;12.28;10.65;;;;;;;;;;1722548;82;21496;-71
2022/08/04 15:08:00;;;;;;;11.22;10.10;;;;;;;;;;1718072;82;21153;-70
2022/08/04 15:10:27;;;;;;;10.90;9.78;;;;;;;;;;1718934;82;21065;-70